sensor_id;sensor_type;location;lat;lon;timestamp;P1;durP1;ratioP1;P2;durP2;ratioP2
17650;SDS011;26663;59.302;18.082;2024-02-26T00:00:33;32.13;;;10.47;;
17650;SDS011;26663;59.302;18.082;2024-02-26T00:03:38;24.97;;;8.20;;
17650;SDS011;26663;59.302;18.082;2024-02-26T00:06:44;16.37;;;8.37;;
17650;SDS011;26663;59.302;18.082;2024-02-26T00:09:49;19.97;;;8.13;;
17650;SDS011;26663;59.302;18.082;2024-02-26T00:12:54;20.57;;;8.77;;
17650;SDS011;26663;59.302;18.082;2024-02-26T00:15:58;18.27;;;9.07;;
17650;SDS011;26663;59.302;18.082;2024-02-26T00:19:02;15.20;;;8.03;;
17650;SDS011;26663;59.302;18.082;2024-02-26T00:22:06;12.73;;;7.83;;
17650;SDS011;26663;59.302;18.082;2024-02-26T00:25:11;13.27;;;7.53;;
17650;SDS011;26663;59.302;18.082;2024-02-26T00:28:15;10.53;;;7.03;;
17650;SDS011;26663;59.302;18.082;2024-02-26T00:31:19;17.40;;;7.93;;
17650;SDS011;26663;59.302;18.082;2024-02-26T00:34:23;17.17;;;8.80;;
17650;SDS011;26663;59.302;18.082;2024-02-26T00:37:27;17.07;;;8.33;;
17650;SDS011;26663;59.302;18.082;2024-02-26T00:40:32;11.00;;;7.07;;
17650;SDS011;26663;59.302;18.082;2024-02-26T00:43:36;10.33;;;6.60;;
17650;SDS011;26663;59.302;18.082;2024-02-26T00:46:42;9.13;;;6.20;;
17650;SDS011;26663;59.302;18.082;2024-02-26T00:49:46;6.93;;;6.23;;
17650;SDS011;26663;59.302;18.082;2024-02-26T00:52:50;10.53;;;7.10;;
17650;SDS011;26663;59.302;18.082;2024-02-26T00:55:55;11.23;;;6.53;;
17650;SDS011;26663;59.302;18.082;2024-02-26T00:59:01;12.60;;;7.43;;
17650;SDS011;26663;59.302;18.082;2024-02-26T01:02:04;11.57;;;6.97;;
17650;SDS011;26663;59.302;18.082;2024-02-26T01:05:08;12.40;;;7.10;;
17650;SDS011;26663;59.302;18.082;2024-02-26T01:08:12;11.37;;;6.83;;
17650;SDS011;26663;59.302;18.082;2024-02-26T01:11:17;11.50;;;7.33;;
17650;SDS011;26663;59.302;18.082;2024-02-26T01:14:21;11.47;;;7.60;;
17650;SDS011;26663;59.302;18.082;2024-02-26T01:17:25;10.27;;;6.93;;
17650;SDS011;26663;59.302;18.082;2024-02-26T01:20:29;13.30;;;7.27;;
17650;SDS011;26663;59.302;18.082;2024-02-26T01:23:33;13.20;;;8.20;;
17650;SDS011;26663;59.302;18.082;2024-02-26T01:26:38;12.27;;;7.37;;
17650;SDS011;26663;59.302;18.082;2024-02-26T01:29:42;12.93;;;7.67;;
17650;SDS011;26663;59.302;18.082;2024-02-26T01:32:46;8.67;;;6.30;;
17650;SDS011;26663;59.302;18.082;2024-02-26T01:35:50;8.63;;;6.47;;
17650;SDS011;26663;59.302;18.082;2024-02-26T01:38:55;10.57;;;7.00;;
17650;SDS011;26663;59.302;18.082;2024-02-26T01:42:00;11.60;;;7.27;;
17650;SDS011;26663;59.302;18.082;2024-02-26T01:45:05;9.80;;;6.80;;
17650;SDS011;26663;59.302;18.082;2024-02-26T01:48:10;7.27;;;6.60;;
17650;SDS011;26663;59.302;18.082;2024-02-26T01:51:14;7.40;;;6.57;;
17650;SDS011;26663;59.302;18.082;2024-02-26T01:54:19;7.10;;;6.27;;
17650;SDS011;26663;59.302;18.082;2024-02-26T01:57:25;8.23;;;6.50;;
17650;SDS011;26663;59.302;18.082;2024-02-26T02:00:29;8.87;;;7.20;;
17650;SDS011;26663;59.302;18.082;2024-02-26T02:03:34;9.17;;;7.07;;
17650;SDS011;26663;59.302;18.082;2024-02-26T02:06:39;7.50;;;6.70;;
17650;SDS011;26663;59.302;18.082;2024-02-26T02:09:44;9.67;;;7.00;;
17650;SDS011;26663;59.302;18.082;2024-02-26T02:12:49;7.80;;;6.57;;
17650;SDS011;26663;59.302;18.082;2024-02-26T02:15:53;7.83;;;6.50;;
17650;SDS011;26663;59.302;18.082;2024-02-26T02:18:57;8.97;;;6.80;;
17650;SDS011;26663;59.302;18.082;2024-02-26T02:22:03;8.37;;;6.87;;
17650;SDS011;26663;59.302;18.082;2024-02-26T02:25:07;10.43;;;6.40;;
17650;SDS011;26663;59.302;18.082;2024-02-26T02:28:11;10.37;;;7.07;;
17650;SDS011;26663;59.302;18.082;2024-02-26T02:31:15;6.97;;;6.37;;
17650;SDS011;26663;59.302;18.082;2024-02-26T02:34:19;7.77;;;7.07;;
17650;SDS011;26663;59.302;18.082;2024-02-26T02:37:24;7.57;;;6.43;;
17650;SDS011;26663;59.302;18.082;2024-02-26T02:40:28;8.53;;;6.70;;
17650;SDS011;26663;59.302;18.082;2024-02-26T02:43:33;8.67;;;6.57;;
17650;SDS011;26663;59.302;18.082;2024-02-26T02:46:37;8.47;;;6.97;;
17650;SDS011;26663;59.302;18.082;2024-02-26T02:49:41;7.83;;;7.03;;
17650;SDS011;26663;59.302;18.082;2024-02-26T02:52:46;12.07;;;7.80;;
17650;SDS011;26663;59.302;18.082;2024-02-26T02:55:52;11.03;;;8.00;;
17650;SDS011;26663;59.302;18.082;2024-02-26T02:58:55;11.27;;;8.20;;
17650;SDS011;26663;59.302;18.082;2024-02-26T03:01:59;8.00;;;7.20;;
17650;SDS011;26663;59.302;18.082;2024-02-26T03:05:03;8.63;;;7.33;;
17650;SDS011;26663;59.302;18.082;2024-02-26T03:08:09;8.30;;;7.50;;
17650;SDS011;26663;59.302;18.082;2024-02-26T03:11:13;10.20;;;7.67;;
17650;SDS011;26663;59.302;18.082;2024-02-26T03:14:18;9.03;;;7.47;;
17650;SDS011;26663;59.302;18.082;2024-02-26T03:17:21;8.50;;;7.57;;
17650;SDS011;26663;59.302;18.082;2024-02-26T03:20:26;11.17;;;8.07;;
17650;SDS011;26663;59.302;18.082;2024-02-26T03:23:32;14.40;;;8.53;;
17650;SDS011;26663;59.302;18.082;2024-02-26T03:26:38;11.30;;;8.27;;
17650;SDS011;26663;59.302;18.082;2024-02-26T03:29:42;9.73;;;7.90;;
17650;SDS011;26663;59.302;18.082;2024-02-26T03:32:46;14.33;;;8.97;;
17650;SDS011;26663;59.302;18.082;2024-02-26T03:35:50;13.83;;;9.30;;
17650;SDS011;26663;59.302;18.082;2024-02-26T03:38:56;13.07;;;9.00;;
17650;SDS011;26663;59.302;18.082;2024-02-26T03:42:01;13.80;;;9.33;;
17650;SDS011;26663;59.302;18.082;2024-02-26T03:45:05;13.50;;;8.93;;
17650;SDS011;26663;59.302;18.082;2024-02-26T03:48:11;12.40;;;8.67;;
17650;SDS011;26663;59.302;18.082;2024-02-26T03:51:15;12.17;;;8.63;;
17650;SDS011;26663;59.302;18.082;2024-02-26T03:54:20;14.47;;;9.07;;
17650;SDS011;26663;59.302;18.082;2024-02-26T03:57:26;14.83;;;9.80;;
17650;SDS011;26663;59.302;18.082;2024-02-26T04:00:30;11.67;;;8.60;;
17650;SDS011;26663;59.302;18.082;2024-02-26T04:03:34;11.63;;;9.27;;
17650;SDS011;26663;59.302;18.082;2024-02-26T04:06:38;10.57;;;8.10;;
17650;SDS011;26663;59.302;18.082;2024-02-26T04:09:44;11.67;;;8.53;;
17650;SDS011;26663;59.302;18.082;2024-02-26T04:12:48;12.43;;;8.67;;
17650;SDS011;26663;59.302;18.082;2024-02-26T04:15:51;14.03;;;8.97;;
17650;SDS011;26663;59.302;18.082;2024-02-26T04:18:55;10.97;;;9.00;;
17650;SDS011;26663;59.302;18.082;2024-02-26T04:21:59;13.03;;;8.50;;
17650;SDS011;26663;59.302;18.082;2024-02-26T04:25:05;10.63;;;9.00;;
17650;SDS011;26663;59.302;18.082;2024-02-26T04:28:09;10.07;;;8.70;;
17650;SDS011;26663;59.302;18.082;2024-02-26T04:31:13;14.83;;;9.43;;
17650;SDS011;26663;59.302;18.082;2024-02-26T04:34:17;16.17;;;9.77;;
17650;SDS011;26663;59.302;18.082;2024-02-26T04:37:21;10.70;;;8.40;;
17650;SDS011;26663;59.302;18.082;2024-02-26T04:40:26;12.33;;;9.10;;
17650;SDS011;26663;59.302;18.082;2024-02-26T04:43:30;12.77;;;8.93;;
17650;SDS011;26663;59.302;18.082;2024-02-26T04:46:39;13.80;;;9.07;;
17650;SDS011;26663;59.302;18.082;2024-02-26T04:49:43;13.90;;;9.23;;
17650;SDS011;26663;59.302;18.082;2024-02-26T04:52:47;15.50;;;9.53;;
17650;SDS011;26663;59.302;18.082;2024-02-26T04:55:52;14.63;;;9.97;;
17650;SDS011;26663;59.302;18.082;2024-02-26T04:58:56;12.47;;;9.50;;
17650;SDS011;26663;59.302;18.082;2024-02-26T05:02:00;13.97;;;9.53;;
17650;SDS011;26663;59.302;18.082;2024-02-26T05:05:04;16.57;;;10.33;;
17650;SDS011;26663;59.302;18.082;2024-02-26T05:08:08;17.07;;;10.70;;
17650;SDS011;26663;59.302;18.082;2024-02-26T05:11:14;15.77;;;10.07;;
17650;SDS011;26663;59.302;18.082;2024-02-26T05:14:20;12.63;;;9.27;;
17650;SDS011;26663;59.302;18.082;2024-02-26T05:17:24;13.17;;;9.63;;
17650;SDS011;26663;59.302;18.082;2024-02-26T05:20:28;14.23;;;10.03;;
17650;SDS011;26663;59.302;18.082;2024-02-26T05:23:33;16.60;;;10.33;;
17650;SDS011;26663;59.302;18.082;2024-02-26T05:26:39;15.67;;;10.30;;
17650;SDS011;26663;59.302;18.082;2024-02-26T05:29:43;17.47;;;10.07;;
17650;SDS011;26663;59.302;18.082;2024-02-26T05:32:47;14.80;;;9.53;;
17650;SDS011;26663;59.302;18.082;2024-02-26T05:35:50;14.37;;;9.53;;
17650;SDS011;26663;59.302;18.082;2024-02-26T05:38:54;14.83;;;9.10;;
17650;SDS011;26663;59.302;18.082;2024-02-26T05:42:01;14.00;;;9.43;;
17650;SDS011;26663;59.302;18.082;2024-02-26T05:45:05;14.33;;;9.17;;
17650;SDS011;26663;59.302;18.082;2024-02-26T05:48:10;15.70;;;9.73;;
17650;SDS011;26663;59.302;18.082;2024-02-26T05:51:15;16.33;;;9.70;;
17650;SDS011;26663;59.302;18.082;2024-02-26T05:54:19;16.00;;;9.67;;
17650;SDS011;26663;59.302;18.082;2024-02-26T05:57:24;14.67;;;8.60;;
17650;SDS011;26663;59.302;18.082;2024-02-26T06:00:28;15.13;;;9.50;;
17650;SDS011;26663;59.302;18.082;2024-02-26T06:03:32;16.00;;;9.80;;
17650;SDS011;26663;59.302;18.082;2024-02-26T06:06:36;19.07;;;13.10;;
17650;SDS011;26663;59.302;18.082;2024-02-26T06:09:44;15.70;;;9.93;;
17650;SDS011;26663;59.302;18.082;2024-02-26T06:12:50;16.53;;;10.33;;
17650;SDS011;26663;59.302;18.082;2024-02-26T06:15:53;13.67;;;9.57;;
17650;SDS011;26663;59.302;18.082;2024-02-26T06:18:58;13.77;;;9.50;;
17650;SDS011;26663;59.302;18.082;2024-02-26T06:22:03;14.97;;;9.73;;
17650;SDS011;26663;59.302;18.082;2024-02-26T06:25:07;12.97;;;9.00;;
17650;SDS011;26663;59.302;18.082;2024-02-26T06:28:12;14.27;;;9.60;;
17650;SDS011;26663;59.302;18.082;2024-02-26T06:31:16;17.30;;;9.87;;
17650;SDS011;26663;59.302;18.082;2024-02-26T06:34:20;19.43;;;10.50;;
17650;SDS011;26663;59.302;18.082;2024-02-26T06:37:24;13.33;;;8.90;;
17650;SDS011;26663;59.302;18.082;2024-02-26T06:40:28;15.00;;;9.40;;
17650;SDS011;26663;59.302;18.082;2024-02-26T06:43:33;14.10;;;9.50;;
17650;SDS011;26663;59.302;18.082;2024-02-26T06:46:37;14.27;;;9.57;;
17650;SDS011;26663;59.302;18.082;2024-02-26T06:49:41;14.37;;;9.70;;
17650;SDS011;26663;59.302;18.082;2024-02-26T06:52:46;16.50;;;9.80;;
17650;SDS011;26663;59.302;18.082;2024-02-26T06:55:50;14.13;;;9.73;;
17650;SDS011;26663;59.302;18.082;2024-02-26T06:58:56;13.50;;;8.77;;
17650;SDS011;26663;59.302;18.082;2024-02-26T07:01:59;14.93;;;9.53;;
17650;SDS011;26663;59.302;18.082;2024-02-26T07:05:03;17.33;;;9.53;;
17650;SDS011;26663;59.302;18.082;2024-02-26T07:08:08;14.87;;;9.43;;
17650;SDS011;26663;59.302;18.082;2024-02-26T07:11:12;14.77;;;9.53;;
17650;SDS011;26663;59.302;18.082;2024-02-26T07:14:17;14.90;;;9.67;;
17650;SDS011;26663;59.302;18.082;2024-02-26T07:17:20;17.33;;;9.77;;
17650;SDS011;26663;59.302;18.082;2024-02-26T07:20:25;14.40;;;9.40;;
17650;SDS011;26663;59.302;18.082;2024-02-26T07:23:29;18.57;;;9.40;;
17650;SDS011;26663;59.302;18.082;2024-02-26T07:26:33;12.67;;;8.83;;
17650;SDS011;26663;59.302;18.082;2024-02-26T07:29:38;16.97;;;9.63;;
17650;SDS011;26663;59.302;18.082;2024-02-26T07:32:42;15.90;;;9.17;;
17650;SDS011;26663;59.302;18.082;2024-02-26T07:35:52;13.97;;;9.23;;
17650;SDS011;26663;59.302;18.082;2024-02-26T07:38:56;14.93;;;9.67;;
17650;SDS011;26663;59.302;18.082;2024-02-26T07:41:59;15.83;;;9.63;;
17650;SDS011;26663;59.302;18.082;2024-02-26T07:45:06;15.93;;;9.73;;
17650;SDS011;26663;59.302;18.082;2024-02-26T07:48:11;15.83;;;9.20;;
17650;SDS011;26663;59.302;18.082;2024-02-26T07:51:16;18.73;;;10.40;;
17650;SDS011;26663;59.302;18.082;2024-02-26T07:54:21;16.40;;;10.30;;
17650;SDS011;26663;59.302;18.082;2024-02-26T07:57:25;15.57;;;10.60;;
17650;SDS011;26663;59.302;18.082;2024-02-26T08:00:30;14.93;;;9.83;;
17650;SDS011;26663;59.302;18.082;2024-02-26T08:03:34;17.73;;;10.87;;
17650;SDS011;26663;59.302;18.082;2024-02-26T08:06:40;16.70;;;9.83;;
17650;SDS011;26663;59.302;18.082;2024-02-26T08:09:45;20.37;;;11.00;;
17650;SDS011;26663;59.302;18.082;2024-02-26T08:12:49;25.27;;;12.50;;
17650;SDS011;26663;59.302;18.082;2024-02-26T08:15:54;21.93;;;11.53;;
17650;SDS011;26663;59.302;18.082;2024-02-26T08:18:58;23.73;;;12.37;;
17650;SDS011;26663;59.302;18.082;2024-02-26T08:22:02;23.97;;;11.57;;
17650;SDS011;26663;59.302;18.082;2024-02-26T08:25:06;19.93;;;11.63;;
17650;SDS011;26663;59.302;18.082;2024-02-26T08:28:12;20.97;;;11.50;;
17650;SDS011;26663;59.302;18.082;2024-02-26T08:31:17;16.03;;;9.60;;
17650;SDS011;26663;59.302;18.082;2024-02-26T08:34:21;20.17;;;9.97;;
17650;SDS011;26663;59.302;18.082;2024-02-26T08:37:25;18.40;;;9.90;;
17650;SDS011;26663;59.302;18.082;2024-02-26T08:40:29;19.80;;;10.47;;
17650;SDS011;26663;59.302;18.082;2024-02-26T08:43:33;21.47;;;10.87;;
17650;SDS011;26663;59.302;18.082;2024-02-26T08:46:38;19.60;;;11.00;;
17650;SDS011;26663;59.302;18.082;2024-02-26T08:49:42;20.13;;;10.67;;
17650;SDS011;26663;59.302;18.082;2024-02-26T08:52:48;22.57;;;10.87;;
17650;SDS011;26663;59.302;18.082;2024-02-26T08:55:53;21.67;;;11.40;;
17650;SDS011;26663;59.302;18.082;2024-02-26T08:58:56;20.57;;;11.43;;
17650;SDS011;26663;59.302;18.082;2024-02-26T09:02:07;22.00;;;11.70;;
17650;SDS011;26663;59.302;18.082;2024-02-26T09:05:11;26.37;;;12.17;;
17650;SDS011;26663;59.302;18.082;2024-02-26T09:08:15;21.97;;;11.67;;
17650;SDS011;26663;59.302;18.082;2024-02-26T09:11:19;24.53;;;11.27;;
17650;SDS011;26663;59.302;18.082;2024-02-26T09:14:23;26.37;;;11.90;;
17650;SDS011;26663;59.302;18.082;2024-02-26T09:17:31;22.37;;;11.80;;
17650;SDS011;26663;59.302;18.082;2024-02-26T09:20:34;22.07;;;11.70;;
17650;SDS011;26663;59.302;18.082;2024-02-26T09:23:38;25.23;;;12.50;;
17650;SDS011;26663;59.302;18.082;2024-02-26T09:26:42;21.60;;;11.37;;
17650;SDS011;26663;59.302;18.082;2024-02-26T09:29:46;23.13;;;10.97;;
17650;SDS011;26663;59.302;18.082;2024-02-26T09:32:51;21.13;;;10.33;;
17650;SDS011;26663;59.302;18.082;2024-02-26T09:35:55;20.57;;;10.70;;
17650;SDS011;26663;59.302;18.082;2024-02-26T09:38:59;21.97;;;11.23;;
17650;SDS011;26663;59.302;18.082;2024-02-26T09:42:04;22.73;;;11.07;;
17650;SDS011;26663;59.302;18.082;2024-02-26T09:45:09;27.57;;;11.37;;
17650;SDS011;26663;59.302;18.082;2024-02-26T09:48:16;24.63;;;10.43;;
17650;SDS011;26663;59.302;18.082;2024-02-26T09:51:21;19.30;;;9.60;;
17650;SDS011;26663;59.302;18.082;2024-02-26T09:54:27;17.57;;;9.30;;
17650;SDS011;26663;59.302;18.082;2024-02-26T09:57:33;22.00;;;10.40;;
17650;SDS011;26663;59.302;18.082;2024-02-26T10:00:38;16.50;;;9.43;;
17650;SDS011;26663;59.302;18.082;2024-02-26T10:03:44;18.37;;;9.50;;
17650;SDS011;26663;59.302;18.082;2024-02-26T10:06:53;17.97;;;9.27;;
17650;SDS011;26663;59.302;18.082;2024-02-26T10:09:57;16.33;;;9.03;;
17650;SDS011;26663;59.302;18.082;2024-02-26T10:13:01;14.57;;;8.63;;
17650;SDS011;26663;59.302;18.082;2024-02-26T10:16:05;17.27;;;9.23;;
17650;SDS011;26663;59.302;18.082;2024-02-26T10:19:17;14.30;;;8.57;;
17650;SDS011;26663;59.302;18.082;2024-02-26T10:22:28;17.17;;;9.67;;
17650;SDS011;26663;59.302;18.082;2024-02-26T10:25:32;15.63;;;9.50;;
17650;SDS011;26663;59.302;18.082;2024-02-26T10:28:36;15.50;;;9.40;;
17650;SDS011;26663;59.302;18.082;2024-02-26T10:31:41;14.60;;;9.10;;
17650;SDS011;26663;59.302;18.082;2024-02-26T10:34:46;15.43;;;8.77;;
17650;SDS011;26663;59.302;18.082;2024-02-26T10:37:50;15.77;;;9.57;;
17650;SDS011;26663;59.302;18.082;2024-02-26T10:40:56;13.67;;;8.67;;
17650;SDS011;26663;59.302;18.082;2024-02-26T10:44:00;12.87;;;8.53;;
17650;SDS011;26663;59.302;18.082;2024-02-26T10:47:04;13.93;;;8.77;;
17650;SDS011;26663;59.302;18.082;2024-02-26T10:50:10;12.43;;;9.03;;
17650;SDS011;26663;59.302;18.082;2024-02-26T10:53:17;13.07;;;9.10;;
17650;SDS011;26663;59.302;18.082;2024-02-26T10:56:22;17.40;;;10.07;;
17650;SDS011;26663;59.302;18.082;2024-02-26T10:59:29;17.43;;;9.57;;
17650;SDS011;26663;59.302;18.082;2024-02-26T11:02:33;13.80;;;9.33;;
17650;SDS011;26663;59.302;18.082;2024-02-26T11:05:39;14.40;;;9.57;;
17650;SDS011;26663;59.302;18.082;2024-02-26T11:08:44;17.00;;;10.40;;
17650;SDS011;26663;59.302;18.082;2024-02-26T11:11:48;13.77;;;9.60;;
17650;SDS011;26663;59.302;18.082;2024-02-26T11:14:57;14.33;;;9.47;;
17650;SDS011;26663;59.302;18.082;2024-02-26T11:18:03;16.90;;;10.43;;
17650;SDS011;26663;59.302;18.082;2024-02-26T11:21:10;14.87;;;9.50;;
17650;SDS011;26663;59.302;18.082;2024-02-26T11:24:15;15.63;;;9.50;;
17650;SDS011;26663;59.302;18.082;2024-02-26T11:27:21;17.67;;;9.57;;
17650;SDS011;26663;59.302;18.082;2024-02-26T11:30:28;12.40;;;8.73;;
17650;SDS011;26663;59.302;18.082;2024-02-26T11:33:34;14.70;;;9.50;;
17650;SDS011;26663;59.302;18.082;2024-02-26T11:36:40;12.93;;;8.73;;
17650;SDS011;26663;59.302;18.082;2024-02-26T11:39:44;11.70;;;8.57;;
17650;SDS011;26663;59.302;18.082;2024-02-26T11:42:48;15.07;;;9.13;;
17650;SDS011;26663;59.302;18.082;2024-02-26T11:45:54;14.43;;;9.13;;
17650;SDS011;26663;59.302;18.082;2024-02-26T11:49:02;15.13;;;10.07;;
17650;SDS011;26663;59.302;18.082;2024-02-26T11:52:08;17.03;;;10.30;;
17650;SDS011;26663;59.302;18.082;2024-02-26T11:55:13;15.05;;;9.23;;
17650;SDS011;26663;59.302;18.082;2024-02-26T11:58:35;17.83;;;10.37;;
17650;SDS011;26663;59.302;18.082;2024-02-26T12:01:39;15.47;;;9.83;;
17650;SDS011;26663;59.302;18.082;2024-02-26T12:04:44;17.43;;;10.50;;
17650;SDS011;26663;59.302;18.082;2024-02-26T12:07:49;16.00;;;10.27;;
17650;SDS011;26663;59.302;18.082;2024-02-26T12:10:56;14.15;;;9.90;;
17650;SDS011;26663;59.302;18.082;2024-02-26T12:14:02;16.73;;;9.97;;
17650;SDS011;26663;59.302;18.082;2024-02-26T12:17:06;13.83;;;9.43;;
17650;SDS011;26663;59.302;18.082;2024-02-26T12:20:11;13.73;;;8.97;;
17650;SDS011;26663;59.302;18.082;2024-02-26T12:23:18;12.13;;;8.97;;
17650;SDS011;26663;59.302;18.082;2024-02-26T12:26:22;13.17;;;8.70;;
17650;SDS011;26663;59.302;18.082;2024-02-26T12:29:26;14.03;;;9.33;;
17650;SDS011;26663;59.302;18.082;2024-02-26T12:32:29;12.93;;;9.00;;
17650;SDS011;26663;59.302;18.082;2024-02-26T12:35:34;13.50;;;9.23;;
17650;SDS011;26663;59.302;18.082;2024-02-26T12:38:40;15.30;;;9.30;;
17650;SDS011;26663;59.302;18.082;2024-02-26T12:41:44;10.93;;;8.00;;
17650;SDS011;26663;59.302;18.082;2024-02-26T12:44:52;12.10;;;8.50;;
17650;SDS011;26663;59.302;18.082;2024-02-26T12:47:56;10.15;;;7.97;;
17650;SDS011;26663;59.302;18.082;2024-02-26T12:51:00;9.93;;;7.83;;
17650;SDS011;26663;59.302;18.082;2024-02-26T12:54:05;8.43;;;7.53;;
17650;SDS011;26663;59.302;18.082;2024-02-26T12:57:10;11.17;;;8.30;;
17650;SDS011;26663;59.302;18.082;2024-02-26T13:00:15;10.32;;;8.07;;
17650;SDS011;26663;59.302;18.082;2024-02-26T13:03:20;13.50;;;8.83;;
17650;SDS011;26663;59.302;18.082;2024-02-26T13:06:24;11.20;;;8.37;;
17650;SDS011;26663;59.302;18.082;2024-02-26T13:09:33;13.57;;;8.77;;
17650;SDS011;26663;59.302;18.082;2024-02-26T13:12:41;10.30;;;8.40;;
17650;SDS011;26663;59.302;18.082;2024-02-26T13:15:46;11.87;;;8.43;;
17650;SDS011;26663;59.302;18.082;2024-02-26T13:18:50;10.37;;;8.17;;
17650;SDS011;26663;59.302;18.082;2024-02-26T13:21:55;7.77;;;7.00;;
17650;SDS011;26663;59.302;18.082;2024-02-26T13:25:00;7.90;;;7.10;;
17650;SDS011;26663;59.302;18.082;2024-02-26T13:28:08;7.00;;;6.40;;
17650;SDS011;26663;59.302;18.082;2024-02-26T13:31:13;9.75;;;7.25;;
17650;SDS011;26663;59.302;18.082;2024-02-26T13:34:22;8.07;;;6.70;;
17650;SDS011;26663;59.302;18.082;2024-02-26T13:37:27;9.70;;;7.43;;
17650;SDS011;26663;59.302;18.082;2024-02-26T13:40:33;8.23;;;7.43;;
17650;SDS011;26663;59.302;18.082;2024-02-26T13:43:37;10.37;;;7.97;;
17650;SDS011;26663;59.302;18.082;2024-02-26T13:46:41;10.53;;;8.00;;
17650;SDS011;26663;59.302;18.082;2024-02-26T13:49:45;8.97;;;8.07;;
17650;SDS011;26663;59.302;18.082;2024-02-26T13:52:48;9.07;;;8.13;;
17650;SDS011;26663;59.302;18.082;2024-02-26T13:55:57;10.40;;;8.18;;
17650;SDS011;26663;59.302;18.082;2024-02-26T13:59:04;11.87;;;9.10;;
17650;SDS011;26663;59.302;18.082;2024-02-26T14:02:09;10.90;;;8.87;;
17650;SDS011;26663;59.302;18.082;2024-02-26T14:05:13;12.00;;;8.60;;
17650;SDS011;26663;59.302;18.082;2024-02-26T14:08:18;9.53;;;8.50;;
17650;SDS011;26663;59.302;18.082;2024-02-26T14:11:23;13.77;;;8.82;;
17650;SDS011;26663;59.302;18.082;2024-02-26T14:14:27;11.93;;;8.67;;
17650;SDS011;26663;59.302;18.082;2024-02-26T14:17:34;9.50;;;8.50;;
17650;SDS011;26663;59.302;18.082;2024-02-26T14:20:38;10.63;;;8.70;;
17650;SDS011;26663;59.302;18.082;2024-02-26T14:23:42;10.50;;;8.98;;
17650;SDS011;26663;59.302;18.082;2024-02-26T14:26:48;12.83;;;8.83;;
17650;SDS011;26663;59.302;18.082;2024-02-26T14:29:51;10.35;;;8.73;;
17650;SDS011;26663;59.302;18.082;2024-02-26T14:32:58;11.77;;;9.13;;
17650;SDS011;26663;59.302;18.082;2024-02-26T14:36:02;10.63;;;8.73;;
17650;SDS011;26663;59.302;18.082;2024-02-26T14:39:06;15.20;;;9.37;;
17650;SDS011;26663;59.302;18.082;2024-02-26T14:42:14;14.77;;;9.20;;
17650;SDS011;26663;59.302;18.082;2024-02-26T14:45:20;14.23;;;8.80;;
17650;SDS011;26663;59.302;18.082;2024-02-26T14:48:24;13.37;;;9.67;;
17650;SDS011;26663;59.302;18.082;2024-02-26T14:51:28;11.57;;;8.80;;
17650;SDS011;26663;59.302;18.082;2024-02-26T14:54:32;11.07;;;8.97;;
17650;SDS011;26663;59.302;18.082;2024-02-26T14:57:41;10.73;;;8.37;;
17650;SDS011;26663;59.302;18.082;2024-02-26T15:00:45;15.35;;;11.77;;
17650;SDS011;26663;59.302;18.082;2024-02-26T15:03:49;14.82;;;12.25;;
17650;SDS011;26663;59.302;18.082;2024-02-26T15:06:53;9.98;;;8.70;;
17650;SDS011;26663;59.302;18.082;2024-02-26T15:09:58;10.90;;;9.00;;
17650;SDS011;26663;59.302;18.082;2024-02-26T15:13:04;9.13;;;8.15;;
17650;SDS011;26663;59.302;18.082;2024-02-26T15:16:16;8.82;;;7.88;;
17650;SDS011;26663;59.302;18.082;2024-02-26T15:19:20;10.52;;;7.57;;
17650;SDS011;26663;59.302;18.082;2024-02-26T15:22:24;11.27;;;8.23;;
17650;SDS011;26663;59.302;18.082;2024-02-26T15:25:28;10.23;;;8.43;;
17650;SDS011;26663;59.302;18.082;2024-02-26T15:28:34;13.60;;;9.18;;
17650;SDS011;26663;59.302;18.082;2024-02-26T15:31:38;14.00;;;9.90;;
17650;SDS011;26663;59.302;18.082;2024-02-26T15:34:42;13.73;;;9.77;;
17650;SDS011;26663;59.302;18.082;2024-02-26T15:37:46;14.20;;;9.90;;
17650;SDS011;26663;59.302;18.082;2024-02-26T15:40:50;17.23;;;11.83;;
17650;SDS011;26663;59.302;18.082;2024-02-26T15:43:55;19.97;;;11.97;;
17650;SDS011;26663;59.302;18.082;2024-02-26T15:47:02;20.47;;;10.77;;
17650;SDS011;26663;59.302;18.082;2024-02-26T15:50:07;26.65;;;17.73;;
17650;SDS011;26663;59.302;18.082;2024-02-26T15:53:12;20.98;;;12.93;;
17650;SDS011;26663;59.302;18.082;2024-02-26T15:56:16;24.27;;;12.47;;
17650;SDS011;26663;59.302;18.082;2024-02-26T15:59:22;21.97;;;12.13;;
17650;SDS011;26663;59.302;18.082;2024-02-26T16:02:27;24.00;;;15.60;;
17650;SDS011;26663;59.302;18.082;2024-02-26T16:05:31;20.00;;;12.00;;
17650;SDS011;26663;59.302;18.082;2024-02-26T16:08:35;19.50;;;11.60;;
17650;SDS011;26663;59.302;18.082;2024-02-26T16:11:38;18.20;;;11.33;;
17650;SDS011;26663;59.302;18.082;2024-02-26T16:14:46;21.73;;;11.43;;
17650;SDS011;26663;59.302;18.082;2024-02-26T16:17:50;20.90;;;10.50;;
17650;SDS011;26663;59.302;18.082;2024-02-26T16:20:59;22.83;;;11.23;;
17650;SDS011;26663;59.302;18.082;2024-02-26T16:24:03;21.70;;;11.40;;
17650;SDS011;26663;59.302;18.082;2024-02-26T16:27:07;22.80;;;12.27;;
17650;SDS011;26663;59.302;18.082;2024-02-26T16:30:12;19.27;;;11.30;;
17650;SDS011;26663;59.302;18.082;2024-02-26T16:33:17;19.60;;;11.30;;
17650;SDS011;26663;59.302;18.082;2024-02-26T16:36:21;24.57;;;11.37;;
17650;SDS011;26663;59.302;18.082;2024-02-26T16:39:25;24.30;;;12.37;;
17650;SDS011;26663;59.302;18.082;2024-02-26T16:42:28;23.53;;;11.70;;
17650;SDS011;26663;59.302;18.082;2024-02-26T16:45:34;20.97;;;11.33;;
17650;SDS011;26663;59.302;18.082;2024-02-26T16:48:38;22.97;;;11.70;;
17650;SDS011;26663;59.302;18.082;2024-02-26T16:51:42;26.97;;;12.10;;
17650;SDS011;26663;59.302;18.082;2024-02-26T16:54:47;23.67;;;11.13;;
17650;SDS011;26663;59.302;18.082;2024-02-26T16:57:51;23.70;;;11.73;;
17650;SDS011;26663;59.302;18.082;2024-02-26T17:00:57;26.30;;;11.60;;
17650;SDS011;26663;59.302;18.082;2024-02-26T17:04:03;24.70;;;11.17;;
17650;SDS011;26663;59.302;18.082;2024-02-26T17:07:08;23.77;;;11.50;;
17650;SDS011;26663;59.302;18.082;2024-02-26T17:10:12;31.57;;;12.87;;
17650;SDS011;26663;59.302;18.082;2024-02-26T17:13:17;24.57;;;12.07;;
17650;SDS011;26663;59.302;18.082;2024-02-26T17:16:22;29.13;;;12.53;;
17650;SDS011;26663;59.302;18.082;2024-02-26T17:19:27;25.50;;;11.10;;
17650;SDS011;26663;59.302;18.082;2024-02-26T17:22:31;26.47;;;11.53;;
17650;SDS011;26663;59.302;18.082;2024-02-26T17:25:35;30.23;;;12.60;;
17650;SDS011;26663;59.302;18.082;2024-02-26T17:28:39;27.40;;;12.37;;
17650;SDS011;26663;59.302;18.082;2024-02-26T17:31:45;28.33;;;12.87;;
17650;SDS011;26663;59.302;18.082;2024-02-26T17:34:49;28.73;;;12.40;;
17650;SDS011;26663;59.302;18.082;2024-02-26T17:37:53;29.43;;;13.40;;
17650;SDS011;26663;59.302;18.082;2024-02-26T17:40:59;29.13;;;12.63;;
17650;SDS011;26663;59.302;18.082;2024-02-26T17:44:03;30.87;;;13.50;;
17650;SDS011;26663;59.302;18.082;2024-02-26T17:47:08;30.17;;;12.80;;
17650;SDS011;26663;59.302;18.082;2024-02-26T17:50:12;29.13;;;12.40;;
17650;SDS011;26663;59.302;18.082;2024-02-26T17:53:17;31.97;;;12.93;;
17650;SDS011;26663;59.302;18.082;2024-02-26T17:56:20;28.47;;;12.33;;